Time;durP1;ratioP1;P1;durP2;ratioP2;P2;SDS_P1;SDS_P2;PMS_P1;PMS_P2;Temp;Humidity;BMP_temperature;BMP_pressure;BME280_temperature;BME280_humidity;BME280_pressure;Samples;Min_cycle;Max_cycle;Signal;HPM_P1;HPM_P2
2023/07/03 00:00:46;;;;;;;31.27;14.00;;;19.10;62.40;;;;;;5085596;28;20456;-81
2023/07/03 00:03:14;;;;;;;28.37;13.87;;;19.00;62.40;;;;;;5067416;28;20452;-81
2023/07/03 00:05:44;;;;;;;23.37;12.40;;;19.00;62.50;;;;;;5080116;28;20463;-82
2023/07/03 00:08:12;;;;;;;26.70;14.10;;;19.10;62.50;;;;;;5065518;28;20465;-79
2023/07/03 00:10:40;;;;;;;25.83;14.50;;;19.10;62.50;;;;;;5083288;28;20452;-80
2023/07/03 00:13:11;;;;;;;23.87;13.17;;;19.10;62.40;;;;;;5081922;28;20471;-80
2023/07/03 00:15:38;;;;;;;20.93;12.33;;;19.00;62.50;;;;;;5087512;28;20967;-80
2023/07/03 00:18:07;;;;;;;26.33;13.63;;;19.00;62.40;;;;;;5085225;28;20513;-81
2023/07/03 00:20:35;;;;;;;22.57;13.17;;;18.90;62.40;;;;;;5088409;28;20470;-79
2023/07/03 00:23:03;;;;;;;24.23;13.10;;;18.90;62.50;;;;;;5083609;28;20461;-79
2023/07/03 00:25:31;;;;;;;26.50;13.40;;;18.80;62.60;;;;;;5085053;28;20464;-80
2023/07/03 00:27:59;;;;;;;24.60;13.37;;;18.80;62.60;;;;;;5083945;28;20459;-80
2023/07/03 00:30:28;;;;;;;29.60;14.13;;;18.80;62.70;;;;;;5066169;28;20465;-81
2023/07/03 00:32:56;;;;;;;26.50;14.20;;;18.80;62.70;;;;;;5083604;28;20486;-82
2023/07/03 00:35:25;;;;;;;26.77;14.50;;;18.70;62.70;;;;;;5069883;28;20454;-82
2023/07/03 00:37:53;;;;;;;24.03;13.73;;;18.70;62.80;;;;;;5068877;28;20960;-81
2023/07/03 00:40:21;;;;;;;24.03;13.70;;;18.70;62.80;;;;;;5078452;28;20464;-80
2023/07/03 00:42:50;;;;;;;23.40;13.23;;;18.60;62.90;;;;;;5084746;28;20560;-80
2023/07/03 00:45:19;;;;;;;25.37;13.60;;;18.60;62.90;;;;;;5067089;28;20470;-80
2023/07/03 00:47:49;;;;;;;24.97;13.27;;;18.60;62.90;;;;;;5058561;28;20493;-81
2023/07/03 00:50:18;;;;;;;26.80;12.90;;;18.60;63.00;;;;;;5079535;28;20466;-81
2023/07/03 00:52:51;;;;;;;25.07;13.90;;;18.50;63.10;;;;;;5067469;28;20986;-80
2023/07/03 00:55:21;;;;;;;27.77;12.93;;;18.50;63.10;;;;;;5060708;28;20466;-81
2023/07/03 00:57:50;;;;;;;22.83;13.17;;;18.40;63.10;;;;;;5076340;28;20470;-80
2023/07/03 01:00:21;;;;;;;24.37;13.13;;;18.40;63.20;;;;;;5083135;28;20918;-81
2023/07/03 01:03:00;;;;;;;29.33;14.07;;;18.40;63.30;;;;;;5077635;28;20518;-81
2023/07/03 01:05:31;;;;;;;32.30;13.27;;;18.40;63.30;;;;;;5078673;28;20538;-80
2023/07/03 01:08:02;;;;;;;24.10;12.50;;;18.30;63.40;;;;;;5064534;28;20572;-81
2023/07/03 01:10:31;;;;;;;32.47;14.47;;;18.30;63.30;;;;;;5064155;28;20833;-81
2023/07/03 01:13:02;;;;;;;27.73;13.87;;;18.30;63.50;;;;;;5061464;28;20543;-80
2023/07/03 01:15:35;;;;;;;28.07;13.80;;;18.30;63.60;;;;;;5069055;28;20454;-80
2023/07/03 01:18:07;;;;;;;26.70;14.03;;;18.40;63.70;;;;;;5082548;28;20455;-79
2023/07/03 01:20:40;;;;;;;24.50;12.90;;;18.50;63.80;;;;;;5081046;28;20453;-81
2023/07/03 01:23:15;;;;;;;31.57;13.20;;;18.60;63.60;;;;;;5068276;28;20974;-81
2023/07/03 01:25:46;;;;;;;24.50;12.20;;;18.70;63.60;;;;;;5085931;28;20566;-79
2023/07/03 01:28:18;;;;;;;24.03;12.93;;;18.70;63.50;;;;;;5082795;28;20950;-81
2023/07/03 01:30:47;;;;;;;32.93;14.30;;;18.80;63.50;;;;;;5080228;28;20463;-80
2023/07/03 01:33:18;;;;;;;22.30;13.40;;;18.80;63.50;;;;;;5067573;28;20974;-79
2023/07/03 01:35:48;;;;;;;26.93;14.47;;;18.90;63.40;;;;;;5069422;28;20450;-81
2023/07/03 01:38:19;;;;;;;25.27;13.93;;;18.90;63.40;;;;;;5076446;28;20469;-80
2023/07/03 01:40:49;;;;;;;26.20;13.80;;;18.90;63.30;;;;;;5067613;28;20451;-81
2023/07/03 01:43:19;;;;;;;30.60;14.00;;;18.90;63.30;;;;;;5081463;28;20463;-80
2023/07/03 01:45:48;;;;;;;28.40;13.37;;;18.90;63.30;;;;;;5067626;28;20506;-80
2023/07/03 01:48:19;;;;;;;25.73;14.20;;;19.00;63.20;;;;;;5085324;28;20503;-81
2023/07/03 01:50:50;;;;;;;22.10;12.60;;;19.00;63.20;;;;;;5066943;28;20463;-79
2023/07/03 01:53:25;;;;;;;27.57;14.20;;;19.00;63.20;;;;;;5064851;28;20472;-80
2023/07/03 01:56:00;;;;;;;25.60;13.73;;;19.00;63.20;;;;;;5077553;28;20453;-80
2023/07/03 01:58:35;;;;;;;25.10;13.10;;;19.00;63.20;;;;;;5082801;28;20920;-80
2023/07/03 02:01:07;;;;;;;25.93;12.67;;;19.00;63.20;;;;;;5069528;28;21090;-80
2023/07/03 02:03:40;;;;;;;28.23;13.43;;;18.90;63.20;;;;;;5070190;28;20456;-81
2023/07/03 02:06:13;;;;;;;33.03;14.73;;;18.90;63.10;;;;;;5068808;28;20473;-79
2023/07/03 02:08:41;;;;;;;24.37;13.07;;;18.90;63.10;;;;;;5074312;28;20894;-79
2023/07/03 02:11:16;;;;;;;26.47;14.33;;;18.80;63.10;;;;;;5084084;28;20473;-79
2023/07/03 02:13:47;;;;;;;26.73;13.90;;;18.80;63.20;;;;;;5075219;28;20558;-80
2023/07/03 02:16:16;;;;;;;27.87;14.10;;;18.70;63.20;;;;;;5085043;28;20558;-81
2023/07/03 02:18:46;;;;;;;28.83;14.63;;;18.70;63.20;;;;;;5065933;28;20456;-80
2023/07/03 02:21:17;;;;;;;21.93;12.83;;;18.60;63.20;;;;;;5076529;28;20542;-82
2023/07/03 02:23:45;;;;;;;28.63;14.37;;;18.60;63.30;;;;;;5085681;28;20454;-79
2023/07/03 02:26:15;;;;;;;23.20;13.20;;;18.50;63.40;;;;;;5085351;28;20560;-80
2023/07/03 02:28:43;;;;;;;29.13;14.93;;;18.50;63.60;;;;;;5069629;28;20549;-80
2023/07/03 02:31:13;;;;;;;25.43;13.20;;;18.50;63.60;;;;;;5070540;28;20540;-80
2023/07/03 02:33:41;;;;;;;29.60;14.60;;;18.40;63.60;;;;;;5086518;28;20472;-83
2023/07/03 02:36:09;;;;;;;27.70;13.67;;;18.40;63.60;;;;;;5069811;28;20468;-80
2023/07/03 02:38:37;;;;;;;25.10;13.70;;;18.30;63.70;;;;;;5085279;28;20462;-81
2023/07/03 02:41:05;;;;;;;26.73;13.90;;;18.30;63.80;;;;;;5076583;28;20561;-83
2023/07/03 02:43:34;;;;;;;26.10;14.00;;;18.30;63.80;;;;;;5070177;28;20819;-83
2023/07/03 02:46:08;;;;;;;28.57;14.03;;;18.30;64.00;;;;;;5075064;28;20545;-83
2023/07/03 02:48:36;;;;;;;29.70;14.10;;;18.30;64.00;;;;;;5082599;28;20478;-80
2023/07/03 02:51:04;;;;;;;27.90;14.17;;;18.40;64.10;;;;;;5044359;28;20534;-82
2023/07/03 02:53:33;;;;;;;27.53;12.77;;;18.40;64.10;;;;;;5062336;28;20478;-82
2023/07/03 02:56:10;;;;;;;29.23;14.10;;;18.40;64.20;;;;;;5055459;28;21112;-82
2023/07/03 02:58:42;;;;;;;24.20;13.27;;;18.50;64.30;;;;;;5048311;28;20466;-80
2023/07/03 03:01:14;;;;;;;29.23;14.40;;;18.50;64.30;;;;;;5052389;28;20478;-81
2023/07/03 03:03:44;;;;;;;27.80;14.57;;;18.50;64.30;;;;;;5050353;28;20459;-79
2023/07/03 03:06:12;;;;;;;27.73;13.30;;;18.60;64.20;;;;;;5038431;28;20486;-80
2023/07/03 03:08:40;;;;;;;23.00;12.23;;;18.60;64.20;;;;;;5046707;28;20509;-78
2023/07/03 03:11:08;;;;;;;26.10;14.73;;;18.60;64.20;;;;;;5064006;28;20460;-80
2023/07/03 03:13:36;;;;;;;26.93;12.43;;;18.60;64.20;;;;;;5054646;28;20475;-80
2023/07/03 03:16:06;;;;;;;27.50;13.93;;;18.60;64.20;;;;;;5049329;28;20523;-79
2023/07/03 03:18:34;;;;;;;28.50;14.00;;;18.70;64.30;;;;;;5059869;28;20542;-80
2023/07/03 03:21:02;;;;;;;27.30;13.27;;;18.70;64.30;;;;;;5051864;28;20559;-80
2023/07/03 03:23:30;;;;;;;29.30;14.30;;;18.70;64.30;;;;;;5061902;28;20988;-79
2023/07/03 03:25:58;;;;;;;25.60;13.20;;;18.80;64.40;;;;;;5048348;28;20539;-81
2023/07/03 03:28:27;;;;;;;28.13;13.37;;;18.80;64.30;;;;;;5059691;28;20453;-82
2023/07/03 03:30:55;;;;;;;29.33;13.67;;;18.80;64.30;;;;;;5048440;28;20472;-82
2023/07/03 03:33:25;;;;;;;25.10;13.40;;;18.80;64.40;;;;;;5051620;28;20475;-81
2023/07/03 03:35:53;;;;;;;24.53;12.97;;;18.90;64.50;;;;;;5047501;28;20811;-80
2023/07/03 03:38:21;;;;;;;27.67;14.70;;;18.90;64.50;;;;;;5044318;28;20850;-81
2023/07/03 03:40:57;;;;;;;28.00;13.70;;;18.90;64.60;;;;;;5046743;28;20470;-80
2023/07/03 03:43:31;;;;;;;32.47;14.60;;;18.90;64.70;;;;;;5048237;28;21027;-82
2023/07/03 03:46:01;;;;;;;27.77;13.30;;;19.00;64.70;;;;;;5040835;28;20475;-80
2023/07/03 03:48:32;;;;;;;31.63;13.07;;;19.00;64.70;;;;;;5061915;28;20504;-81
2023/07/03 03:51:02;;;;;;;24.47;12.07;;;19.00;64.70;;;;;;5071128;28;20569;-82
2023/07/03 03:53:32;;;;;;;29.20;12.73;;;19.10;64.70;;;;;;5066192;28;20496;-80
2023/07/03 03:56:00;;;;;;;25.70;12.40;;;19.10;64.70;;;;;;5066874;28;20452;-81
2023/07/03 03:58:40;;;;;;;22.03;12.50;;;19.10;64.70;;;;;;5068982;28;20466;-82
2023/07/03 04:01:09;;;;;;;23.53;12.20;;;19.10;64.80;;;;;;5068962;28;20476;-81
2023/07/03 04:03:38;;;;;;;27.90;13.10;;;19.10;64.90;;;;;;5087559;28;20448;-82
2023/07/03 04:06:07;;;;;;;26.63;13.63;;;19.20;65.00;;;;;;5067793;28;20492;-82
2023/07/03 04:08:35;;;;;;;25.70;13.80;;;19.20;65.00;;;;;;5068913;28;20458;-81
2023/07/03 04:11:03;;;;;;;30.43;13.10;;;19.20;65.00;;;;;;5079293;28;20471;-79
2023/07/03 04:13:31;;;;;;;27.57;12.50;;;19.20;65.20;;;;;;5067892;28;21250;-79
2023/07/03 04:16:03;;;;;;;29.90;13.10;;;19.20;65.30;;;;;;5067327;28;20460;-81
2023/07/03 04:18:32;;;;;;;28.90;13.83;;;19.20;65.40;;;;;;5085064;28;20457;-81
2023/07/03 04:21:02;;;;;;;21.10;12.20;;;19.20;65.40;;;;;;5083005;28;20483;-81
2023/07/03 04:23:30;;;;;;;26.77;13.70;;;19.20;65.40;;;;;;5083727;28;20946;-80
2023/07/03 04:25:58;;;;;;;25.60;13.67;;;19.20;65.50;;;;;;5074333;28;20465;-79
2023/07/03 04:28:26;;;;;;;27.90;12.50;;;19.20;65.60;;;;;;5070636;28;20555;-80
2023/07/03 04:30:54;;;;;;;27.90;13.40;;;19.20;65.70;;;;;;5081233;28;20548;-81
2023/07/03 04:33:22;;;;;;;24.73;12.93;;;19.20;65.80;;;;;;5088109;28;20472;-81
2023/07/03 04:35:50;;;;;;;26.97;13.60;;;19.20;65.90;;;;;;5070165;28;21171;-81
2023/07/03 04:38:23;;;;;;;27.43;13.70;;;19.20;66.00;;;;;;5080182;28;20493;-81
2023/07/03 04:40:52;;;;;;;26.77;13.10;;;19.20;66.00;;;;;;5084662;28;20459;-80
2023/07/03 04:43:20;;;;;;;26.00;12.47;;;19.20;66.00;;;;;;5085785;28;20475;-81
2023/07/03 04:45:51;;;;;;;24.77;13.60;;;19.20;66.10;;;;;;5083219;28;20459;-81
2023/07/03 04:48:20;;;;;;;28.23;12.40;;;19.20;66.10;;;;;;5060839;28;20476;-82
2023/07/03 04:50:49;;;;;;;25.77;13.77;;;19.20;66.10;;;;;;5068747;28;20560;-79
2023/07/03 04:53:21;;;;;;;25.93;12.07;;;19.20;66.20;;;;;;5081653;28;20459;-80
2023/07/03 04:55:50;;;;;;;22.27;12.30;;;19.20;66.20;;;;;;5083163;28;20540;-82
2023/07/03 04:58:19;;;;;;;25.93;12.13;;;19.30;66.30;;;;;;5087956;28;20456;-80
2023/07/03 05:00:48;;;;;;;27.00;13.00;;;19.30;66.30;;;;;;5082924;28;20537;-82
2023/07/03 05:03:17;;;;;;;25.43;11.57;;;19.30;66.30;;;;;;5066098;28;20461;-81
2023/07/03 05:05:45;;;;;;;27.90;12.97;;;19.30;66.30;;;;;;5087794;28;20516;-81
2023/07/03 05:08:13;;;;;;;20.40;12.43;;;19.30;66.30;;;;;;5084673;28;21267;-80
2023/07/03 05:10:42;;;;;;;23.47;11.57;;;19.40;66.40;;;;;;5070161;28;20516;-80
2023/07/03 05:13:10;;;;;;;28.63;13.57;;;19.40;66.40;;;;;;5061785;28;20466;-82
2023/07/03 05:15:38;;;;;;;23.53;12.50;;;19.40;66.40;;;;;;5084627;28;20484;-79
2023/07/03 05:18:06;;;;;;;25.37;12.20;;;19.50;66.30;;;;;;5082711;28;21294;-82
2023/07/03 05:20:34;;;;;;;27.70;12.60;;;19.50;66.20;;;;;;5076042;28;20547;-79
2023/07/03 05:23:03;;;;;;;22.60;12.63;;;19.50;66.10;;;;;;5086456;28;20454;-79
2023/07/03 05:25:31;;;;;;;25.77;12.03;;;19.50;66.10;;;;;;5089895;28;20456;-80
2023/07/03 05:28:00;;;;;;;26.53;12.50;;;19.50;66.20;;;;;;5085328;28;20456;-81
2023/07/03 05:30:34;;;;;;;27.93;13.00;;;19.50;66.10;;;;;;5068876;28;20464;-78
2023/07/03 05:33:02;;;;;;;26.47;12.60;;;19.60;66.10;;;;;;5087100;28;20471;-79
2023/07/03 05:35:30;;;;;;;28.13;13.70;;;19.60;66.10;;;;;;5073871;28;20613;-81
2023/07/03 05:38:00;;;;;;;27.83;13.20;;;19.70;66.00;;;;;;5084986;28;20462;-78
2023/07/03 05:40:29;;;;;;;23.83;12.03;;;19.70;66.10;;;;;;5088803;28;20484;-81
2023/07/03 05:42:57;;;;;;;24.20;12.23;;;19.80;66.10;;;;;;5074629;28;20471;-82
2023/07/03 05:45:26;;;;;;;22.30;12.73;;;19.80;66.10;;;;;;5093736;28;20447;-80
2023/07/03 05:47:54;;;;;;;24.60;11.90;;;19.80;66.20;;;;;;5070830;28;20478;-81
2023/07/03 05:50:24;;;;;;;27.07;11.53;;;19.80;66.10;;;;;;5087201;28;20968;-80
2023/07/03 05:52:52;;;;;;;24.00;12.13;;;19.80;66.10;;;;;;5080716;28;20955;-80
2023/07/03 05:55:20;;;;;;;29.43;12.17;;;19.80;66.20;;;;;;5074265;28;20475;-80
2023/07/03 05:57:49;;;;;;;22.10;10.83;;;19.90;66.20;;;;;;5071373;28;20460;-82
2023/07/03 06:00:18;;;;;;;27.37;11.80;;;19.90;66.20;;;;;;5082293;28;20475;-80
2023/07/03 06:02:51;;;;;;;28.87;11.83;;;19.90;66.20;;;;;;5081031;28;20839;-79
2023/07/03 06:05:20;;;;;;;22.30;11.70;;;19.90;66.10;;;;;;5072443;28;20469;-78
2023/07/03 06:07:48;;;;;;;22.37;10.63;;;19.90;66.10;;;;;;5080820;28;21127;-81
2023/07/03 06:10:16;;;;;;;22.10;11.47;;;20.00;66.00;;;;;;5088173;28;20464;-79
2023/07/03 06:12:46;;;;;;;30.13;12.07;;;20.00;66.00;;;;;;5093132;28;20700;-82
2023/07/03 06:15:14;;;;;;;26.90;11.57;;;20.00;65.90;;;;;;5084855;28;20864;-80
2023/07/03 06:17:42;;;;;;;23.33;12.30;;;20.00;65.90;;;;;;5090961;28;20820;-80
2023/07/03 06:20:12;;;;;;;22.50;11.40;;;20.10;66.00;;;;;;5090989;28;20530;-80
2023/07/03 06:22:40;;;;;;;23.23;10.93;;;20.20;66.00;;;;;;5071131;28;20494;-83
2023/07/03 06:25:09;;;;;;;33.27;11.73;;;20.20;65.80;;;;;;5074127;28;20546;-81
2023/07/03 06:27:37;;;;;;;25.20;11.97;;;20.40;66.00;;;;;;5084841;28;20463;-83
2023/07/03 06:30:06;;;;;;;33.43;11.30;;;20.60;66.10;;;;;;5086310;28;20461;-78
2023/07/03 06:32:34;;;;;;;19.90;10.67;;;21.00;65.90;;;;;;5086251;28;20473;-82
2023/07/03 06:35:03;;;;;;;24.83;11.17;;;21.40;65.40;;;;;;5089343;28;20492;-81
2023/07/03 06:37:35;;;;;;;26.30;10.33;;;21.70;64.80;;;;;;5087878;28;20459;-80
2023/07/03 06:40:09;;;;;;;19.60;10.40;;;21.80;64.30;;;;;;5085373;28;20464;-82
2023/07/03 06:42:39;;;;;;;28.90;10.70;;;21.90;63.70;;;;;;5084911;28;20449;-82
2023/07/03 06:45:14;;;;;;;23.43;9.30;;;21.90;63.10;;;;;;5088791;28;20932;-81
2023/07/03 06:47:42;;;;;;;18.83;9.77;;;21.80;63.10;;;;;;5089583;28;20460;-81
2023/07/03 06:50:11;;;;;;;23.13;10.40;;;21.80;62.90;;;;;;5077230;28;20480;-80
2023/07/03 06:52:42;;;;;;;22.80;10.20;;;21.70;62.80;;;;;;5086542;28;20449;-81
2023/07/03 06:55:11;;;;;;;22.70;9.50;;;21.80;62.70;;;;;;5087037;28;20469;-80
2023/07/03 06:57:39;;;;;;;18.70;9.00;;;21.70;62.60;;;;;;5084788;28;20557;-79
2023/07/03 07:00:08;;;;;;;18.57;9.90;;;21.70;62.50;;;;;;5076012;28;20457;-82
2023/07/03 07:02:36;;;;;;;22.43;10.13;;;21.60;62.40;;;;;;5084384;28;20457;-79
2023/07/03 07:05:05;;;;;;;20.70;10.07;;;21.60;62.30;;;;;;5083567;28;20798;-79
2023/07/03 07:07:33;;;;;;;24.63;11.17;;;21.60;62.30;;;;;;5083506;28;20520;-80
2023/07/03 07:10:02;;;;;;;21.33;10.10;;;21.60;62.30;;;;;;5087531;28;20488;-80
2023/07/03 07:12:30;;;;;;;19.00;8.43;;;21.50;62.30;;;;;;5069683;28;20462;-81
2023/07/03 07:14:58;;;;;;;22.70;9.83;;;21.40;62.20;;;;;;5089076;28;20473;-82
2023/07/03 07:17:27;;;;;;;17.63;8.50;;;21.40;62.10;;;;;;5073281;28;20449;-83
2023/07/03 07:20:13;;;;;;;19.83;8.77;;;21.40;61.90;;;;;;5082347;28;20456;-82
2023/07/03 07:22:41;;;;;;;17.63;8.50;;;21.30;62.00;;;;;;5083494;28;20824;-80
2023/07/03 07:25:10;;;;;;;24.37;10.10;;;21.30;62.00;;;;;;5084424;28;21023;-82
2023/07/03 07:27:39;;;;;;;24.13;9.23;;;21.30;62.10;;;;;;5079933;28;20501;-82
2023/07/03 07:30:09;;;;;;;21.87;9.47;;;21.30;62.10;;;;;;5082576;28;20543;-79
2023/07/03 07:32:37;;;;;;;19.40;8.93;;;21.40;62.00;;;;;;5068293;28;20460;-81
2023/07/03 07:35:09;;;;;;;21.70;9.17;;;21.40;62.00;;;;;;5065241;28;20551;-80
2023/07/03 07:37:37;;;;;;;23.23;9.40;;;21.30;62.00;;;;;;5087608;28;20993;-80
2023/07/03 07:40:07;;;;;;;20.00;8.53;;;21.30;62.10;;;;;;5072463;28;20467;-82
2023/07/03 07:42:37;;;;;;;17.53;8.60;;;21.30;62.00;;;;;;5090410;28;20461;-80
2023/07/03 07:45:08;;;;;;;27.53;9.53;;;21.40;62.00;;;;;;5076820;28;20460;-82
2023/07/03 07:47:36;;;;;;;21.67;8.10;;;21.40;61.90;;;;;;5084958;28;20547;-82
2023/07/03 07:50:05;;;;;;;19.13;8.43;;;21.40;61.90;;;;;;5072598;28;20456;-82
2023/07/03 07:52:34;;;;;;;28.37;8.30;;;21.30;61.90;;;;;;5085613;28;20457;-81
2023/07/03 07:55:02;;;;;;;19.30;7.60;;;21.40;61.90;;;;;;5079822;28;21087;-81
2023/07/03 07:57:32;;;;;;;18.53;7.33;;;21.30;62.10;;;;;;5086659;28;20487;-82
2023/07/03 08:00:01;;;;;;;22.63;8.07;;;21.30;62.00;;;;;;5086722;28;20492;-80
2023/07/03 08:02:38;;;;;;;20.43;7.40;;;21.30;61.90;;;;;;5078509;28;20471;-80
2023/07/03 08:05:07;;;;;;;22.97;7.20;;;21.30;61.80;;;;;;5083555;28;20502;-80
2023/07/03 08:07:35;;;;;;;17.83;7.50;;;21.30;61.90;;;;;;5082748;28;20485;-81
2023/07/03 08:10:04;;;;;;;16.80;5.70;;;21.30;61.90;;;;;;5068343;28;20514;-81
2023/07/03 08:12:32;;;;;;;24.37;6.10;;;21.30;61.90;;;;;;5089498;28;20573;-80
2023/07/03 08:15:04;;;;;;;21.50;6.70;;;21.30;61.70;;;;;;5070975;28;20457;-79
2023/07/03 08:17:32;;;;;;;20.63;6.73;;;21.30;61.60;;;;;;5085172;28;20459;-79
2023/07/03 08:20:00;;;;;;;15.97;6.60;;;21.30;61.70;;;;;;5083778;28;20479;-78
2023/07/03 08:22:28;;;;;;;23.27;6.43;;;21.30;61.50;;;;;;5079236;28;20450;-80
2023/07/03 08:24:56;;;;;;;18.73;6.50;;;21.20;61.40;;;;;;5071912;28;20547;-80
2023/07/03 08:27:24;;;;;;;16.07;5.87;;;21.20;61.40;;;;;;5064708;28;20445;-80
2023/07/03 08:29:52;;;;;;;22.10;6.73;;;21.20;61.40;;;;;;5086722;28;20460;-81
2023/07/03 08:32:24;;;;;;;14.77;5.67;;;21.20;61.50;;;;;;5083641;28;20485;-81
2023/07/03 08:34:52;;;;;;;22.47;5.73;;;21.20;61.50;;;;;;5072490;28;20460;-81
2023/07/03 08:37:24;;;;;;;13.10;5.03;;;21.20;61.10;;;;;;5088725;28;20480;-80
2023/07/03 08:39:52;;;;;;;15.67;5.80;;;21.20;60.90;;;;;;5071399;28;20806;-83
2023/07/03 08:42:24;;;;;;;12.43;4.77;;;21.20;60.80;;;;;;5082252;28;20456;-80
2023/07/03 08:44:52;;;;;;;13.17;4.80;;;21.30;60.60;;;;;;5065581;28;20453;-81
2023/07/03 08:47:26;;;;;;;13.20;5.00;;;21.30;60.50;;;;;;5079695;28;20453;-80
2023/07/03 08:49:57;;;;;;;12.73;5.23;;;21.30;60.50;;;;;;5082973;28;21031;-80
2023/07/03 08:52:30;;;;;;;11.17;4.40;;;21.40;60.50;;;;;;5082634;28;20457;-79
2023/07/03 08:54:59;;;;;;;16.57;5.83;;;21.50;60.30;;;;;;5075814;28;20461;-82
2023/07/03 08:57:27;;;;;;;16.10;4.70;;;21.70;60.20;;;;;;5085257;28;20486;-82
2023/07/03 08:59:55;;;;;;;14.20;4.80;;;21.70;59.90;;;;;;5082105;28;20967;-82
2023/07/03 09:02:36;;;;;;;12.93;4.70;;;21.80;59.80;;;;;;5061111;28;20468;-82
2023/07/03 09:05:16;;;;;;;15.00;4.50;;;21.90;59.60;;;;;;5078072;28;21007;-82
2023/07/03 09:07:50;;;;;;;13.20;3.93;;;21.90;59.20;;;;;;5067898;28;21927;-82
2023/07/03 09:10:23;;;;;;;14.90;4.57;;;21.90;58.70;;;;;;5080368;28;20452;-81
2023/07/03 09:13:00;;;;;;;12.00;4.00;;;21.80;58.20;;;;;;5064415;28;20460;-81
2023/07/03 09:15:34;;;;;;;12.53;4.40;;;21.70;58.40;;;;;;5083199;28;20456;-80
2023/07/03 09:18:13;;;;;;;14.10;4.13;;;21.70;58.30;;;;;;5076560;28;20459;-82
2023/07/03 09:20:42;;;;;;;16.17;3.70;;;21.70;58.60;;;;;;5084603;28;20463;-83
2023/07/03 09:23:20;;;;;;;12.50;3.70;;;21.80;58.80;;;;;;5084126;28;20462;-81
2023/07/03 09:25:52;;;;;;;9.93;3.47;;;21.90;58.50;;;;;;5067205;28;20465;-79
2023/07/03 09:28:22;;;;;;;8.37;3.00;;;22.00;58.30;;;;;;5080218;28;20469;-80
2023/07/03 09:30:53;;;;;;;11.30;2.77;;;22.10;58.10;;;;;;5063756;28;20472;-82
2023/07/03 09:33:23;;;;;;;10.17;3.27;;;22.10;57.80;;;;;;5081564;28;20526;-81
2023/07/03 09:35:53;;;;;;;13.40;3.60;;;22.20;57.70;;;;;;5082550;28;20457;-81
2023/07/03 09:38:24;;;;;;;14.57;3.37;;;22.10;57.40;;;;;;5066577;28;20456;-81
2023/07/03 09:40:55;;;;;;;10.43;2.80;;;22.20;57.40;;;;;;5078552;28;20527;-80
2023/07/03 09:43:29;;;;;;;10.97;2.47;;;22.20;56.90;;;;;;5082443;28;21290;-80
2023/07/03 09:46:06;;;;;;;8.60;3.10;;;22.30;56.90;;;;;;5066082;28;20722;-82
2023/07/03 09:48:36;;;;;;;7.67;2.87;;;22.30;56.50;;;;;;5086591;28;20495;-81
2023/07/03 09:51:06;;;;;;;8.60;2.90;;;22.30;56.40;;;;;;5069863;28;20935;-80
2023/07/03 09:53:40;;;;;;;11.80;3.03;;;22.30;56.40;;;;;;5085993;28;20491;-82
2023/07/03 09:56:15;;;;;;;10.10;3.33;;;22.30;56.40;;;;;;5063746;28;20879;-80
2023/07/03 09:58:47;;;;;;;9.07;3.50;;;22.40;56.20;;;;;;5084579;28;20544;-82
2023/07/03 10:01:18;;;;;;;6.57;2.83;;;22.40;56.30;;;;;;5068905;28;20587;-81
2023/07/03 10:04:02;;;;;;;12.17;3.30;;;22.40;56.30;;;;;;5080060;28;20535;-81
2023/07/03 10:06:59;;;;;;;13.23;3.03;;;22.50;55.90;;;;;;5076811;28;20966;-83
2023/07/03 10:09:31;;;;;;;8.80;3.30;;;22.40;55.50;;;;;;5084630;28;20465;-79
2023/07/03 10:12:09;;;;;;;9.90;3.27;;;22.30;55.50;;;;;;5089144;28;20834;-80
2023/07/03 10:14:48;;;;;;;7.40;3.20;;;22.30;55.40;;;;;;5086622;28;20462;-81
2023/07/03 10:17:21;;;;;;;10.87;3.37;;;22.30;55.40;;;;;;5085806;28;20468;-82
2023/07/03 10:19:55;;;;;;;11.70;3.50;;;22.30;55.30;;;;;;5091032;28;20549;-79
2023/07/03 10:22:25;;;;;;;8.87;3.30;;;22.30;55.30;;;;;;5083178;28;20466;-81
2023/07/03 10:24:58;;;;;;;14.50;3.67;;;22.30;55.40;;;;;;5087599;28;21116;-80
2023/07/03 10:27:29;;;;;;;10.57;3.30;;;22.30;55.40;;;;;;5090272;28;20452;-78
2023/07/03 10:29:59;;;;;;;8.47;2.90;;;22.30;55.50;;;;;;5075058;28;20448;-81
2023/07/03 10:32:31;;;;;;;8.70;3.40;;;22.30;55.60;;;;;;5064952;28;20998;-82
2023/07/03 10:35:04;;;;;;;13.80;3.93;;;22.40;55.70;;;;;;5088990;28;20502;-83
2023/07/03 10:37:44;;;;;;;15.73;4.10;;;22.40;55.70;;;;;;5070521;28;20469;-79
2023/07/03 10:40:18;;;;;;;9.83;3.20;;;22.50;55.70;;;;;;5089459;28;20460;-80
2023/07/03 10:42:52;;;;;;;9.40;3.33;;;22.50;56.00;;;;;;5066757;28;20449;-80
2023/07/03 10:45:21;;;;;;;13.63;3.80;;;22.50;56.00;;;;;;5085131;28;20480;-80
2023/07/03 10:47:54;;;;;;;8.03;3.00;;;22.60;55.90;;;;;;5085569;28;21279;-81
2023/07/03 10:50:33;;;;;;;9.03;2.90;;;22.60;55.90;;;;;;5085065;28;20489;-80
2023/07/03 10:53:09;;;;;;;12.30;3.60;;;22.60;56.10;;;;;;5085654;28;20448;-80
2023/07/03 10:55:44;;;;;;;8.90;3.00;;;22.70;55.90;;;;;;5071623;28;20548;-78
2023/07/03 10:58:27;;;;;;;8.00;2.70;;;22.70;55.90;;;;;;5085597;28;20475;-82
2023/07/03 11:01:00;;;;;;;9.17;3.00;;;22.80;55.70;;;;;;5071787;28;20477;-80
2023/07/03 11:03:37;;;;;;;9.20;2.67;;;22.80;55.80;;;;;;5068331;28;20793;-81
2023/07/03 11:06:14;;;;;;;6.93;2.70;;;22.90;55.90;;;;;;5087037;28;20523;-82
2023/07/03 11:08:49;;;;;;;8.77;3.03;;;22.90;55.50;;;;;;5087344;28;20980;-81
2023/07/03 11:11:31;;;;;;;8.10;2.93;;;22.80;55.40;;;;;;5086759;28;20448;-82
2023/07/03 11:14:06;;;;;;;10.67;2.70;;;22.80;55.60;;;;;;5068563;28;20454;-82
2023/07/03 11:16:42;;;;;;;9.00;3.40;;;22.80;55.70;;;;;;5069756;28;20457;-80
2023/07/03 11:19:19;;;;;;;12.23;4.20;;;22.80;55.70;;;;;;5069488;28;20456;-82
2023/07/03 11:21:59;;;;;;;8.30;3.00;;;22.80;55.50;;;;;;5066540;28;20472;-81
2023/07/03 11:24:37;;;;;;;11.90;3.43;;;22.70;55.50;;;;;;5071252;28;20967;-82
2023/07/03 11:27:14;;;;;;;8.90;3.00;;;22.70;55.50;;;;;;5087394;28;20823;-80
2023/07/03 11:29:47;;;;;;;9.10;3.40;;;22.60;55.50;;;;;;5084606;28;20819;-83
2023/07/03 11:32:16;;;;;;;7.23;3.00;;;22.60;55.60;;;;;;5061668;28;20472;-81
2023/07/03 11:34:45;;;;;;;12.17;3.10;;;22.60;55.80;;;;;;5089173;28;20452;-83
2023/07/03 11:37:44;;;;;;;9.40;3.10;;;22.60;55.80;;;;;;5087159;28;20491;-81
2023/07/03 11:40:27;;;;;;;11.53;3.43;;;22.60;55.70;;;;;;5086768;28;20453;-84
2023/07/03 11:43:20;;;;;;;13.20;3.20;;;22.60;55.80;;;;;;5084881;28;20449;-81
2023/07/03 11:46:06;;;;;;;12.63;3.43;;;22.70;55.90;;;;;;5069285;28;20461;-80
2023/07/03 11:48:43;;;;;;;9.67;3.27;;;22.70;55.60;;;;;;5087985;28;20518;-80
2023/07/03 11:51:13;;;;;;;11.93;3.10;;;22.70;55.60;;;;;;5085062;28;20448;-81
2023/07/03 11:53:45;;;;;;;11.10;3.67;;;22.60;55.70;;;;;;5066810;28;20780;-80
2023/07/03 11:56:15;;;;;;;9.67;3.10;;;22.70;55.90;;;;;;5078100;28;20463;-79
2023/07/03 11:58:45;;;;;;;12.20;3.70;;;22.70;56.10;;;;;;5081292;28;20478;-80
2023/07/03 12:01:30;;;;;;;9.47;3.70;;;22.80;56.00;;;;;;5085977;28;20472;-80
2023/07/03 12:04:00;;;;;;;11.40;3.37;;;22.90;55.90;;;;;;5086710;28;20448;-80
2023/07/03 12:06:45;;;;;;;13.90;3.87;;;22.90;56.00;;;;;;5081195;28;21011;-82
2023/07/03 12:09:26;;;;;;;7.30;3.07;;;23.00;55.90;;;;;;5085180;28;20444;-79
2023/07/03 12:12:18;;;;;;;12.73;3.40;;;23.00;55.60;;;;;;5074378;28;20959;-80
2023/07/03 12:14:57;;;;;;;9.50;3.53;;;23.00;55.60;;;;;;5088386;28;20499;-79
2023/07/03 12:17:29;;;;;;;11.77;4.53;;;23.00;56.00;;;;;;5067772;28;20489;-80
2023/07/03 12:20:06;;;;;;;14.07;3.60;;;23.00;56.00;;;;;;5069045;28;20446;-80
2023/07/03 12:22:38;;;;;;;13.50;4.30;;;23.20;56.00;;;;;;5081975;28;20467;-81
2023/07/03 12:25:08;;;;;;;8.23;2.70;;;23.20;55.90;;;;;;5067966;28;21429;-82
2023/07/03 12:27:37;;;;;;;8.17;3.27;;;23.30;55.90;;;;;;5086855;28;20459;-81
2023/07/03 12:30:11;;;;;;;8.10;2.93;;;23.40;55.90;;;;;;5081743;28;20463;-79
2023/07/03 12:32:41;;;;;;;10.97;3.03;;;23.40;55.80;;;;;;5085991;28;20453;-81
2023/07/03 12:35:14;;;;;;;10.00;3.13;;;23.50;55.60;;;;;;5083577;28;20461;-80
2023/07/03 12:37:47;;;;;;;8.37;3.30;;;23.40;55.20;;;;;;5082895;28;20997;-82
2023/07/03 12:40:17;;;;;;;8.93;3.10;;;23.40;55.20;;;;;;5062704;28;20553;-79
2023/07/03 12:42:46;;;;;;;11.70;3.33;;;23.40;55.20;;;;;;5082987;28;20982;-80
2023/07/03 12:45:21;;;;;;;7.63;3.47;;;23.40;55.40;;;;;;5074636;28;20459;-81
2023/07/03 12:48:01;;;;;;;6.97;3.30;;;23.50;55.30;;;;;;5064058;28;20996;-81
2023/07/03 12:50:30;;;;;;;9.23;3.27;;;23.60;55.00;;;;;;5074319;28;20542;-79
2023/07/03 12:53:01;;;;;;;8.43;3.30;;;23.50;54.80;;;;;;5083500;28;21239;-81